Time;durP1;ratioP1;P1;durP2;ratioP2;P2;SDS_P1;SDS_P2;PMS_P1;PMS_P2;Temp;Humidity;BMP_temperature;BMP_pressure;BME280_temperature;BME280_humidity;BME280_pressure;Samples;Min_cycle;Max_cycle;Signal;HPM_P1;HPM_P2
2021/12/26 00:01:02;;;;;;;0.60;0.60;;;;;;;-4.06;63.37;101033.97;5055256;28;20096;-70
2021/12/26 00:03:29;;;;;;;0.60;0.60;;;;;;;-4.12;63.17;101031.72;5055407;28;20044;-70
2021/12/26 00:05:55;;;;;;;0.77;0.77;;;;;;;-4.18;62.84;101046.53;5050683;28;20780;-69
2021/12/26 00:08:21;;;;;;;0.43;0.43;;;;;;;-4.26;63.73;101048.38;5051291;28;20279;-71
2021/12/26 00:10:48;;;;;;;0.70;0.70;;;;;;;-4.31;63.83;101049.59;5056491;28;20700;-70
2021/12/26 00:13:15;;;;;;;0.60;0.60;;;;;;;-4.32;63.52;101045.25;5056772;28;20303;-70
2021/12/26 00:15:40;;;;;;;0.60;0.60;;;;;;;-4.38;62.61;101048.16;5056275;28;20306;-69
2021/12/26 00:18:07;;;;;;;0.60;0.60;;;;;;;-4.42;63.06;101039.31;5056932;28;20294;-70
2021/12/26 00:20:32;;;;;;;0.70;0.70;;;;;;;-4.37;63.50;101047.41;5041154;28;20438;-71
2021/12/26 00:22:58;;;;;;;0.70;0.70;;;;;;;-4.41;63.54;101045.34;5036798;28;20282;-69
2021/12/26 00:25:23;;;;;;;0.63;0.63;;;;;;;-4.45;63.92;101046.72;5036216;28;20021;-69
2021/12/26 00:27:49;;;;;;;0.60;0.60;;;;;;;-4.48;63.17;101046.41;5036652;28;20032;-70
2021/12/26 00:30:16;;;;;;;0.70;0.70;;;;;;;-4.54;64.15;101043.31;5036463;28;20063;-69
2021/12/26 00:32:43;;;;;;;0.60;0.60;;;;;;;-4.60;63.00;101042.72;5039839;28;20075;-71
2021/12/26 00:35:09;;;;;;;0.60;0.60;;;;;;;-4.64;63.70;101046.66;5053019;28;20287;-69
2021/12/26 00:37:35;;;;;;;0.60;0.60;;;;;;;-4.66;64.21;101049.81;5046433;28;20306;-70
2021/12/26 00:40:00;;;;;;;0.60;0.60;;;;;;;-4.69;64.29;101045.31;5046598;28;20268;-69
2021/12/26 00:42:26;;;;;;;0.60;0.60;;;;;;;-4.74;64.06;101039.78;5046140;28;20304;-70
2021/12/26 00:44:51;;;;;;;0.57;0.57;;;;;;;-4.75;65.05;101034.53;5046479;28;20392;-69
2021/12/26 00:47:17;;;;;;;0.60;0.60;;;;;;;-4.77;63.82;101033.50;5044986;28;20391;-70
2021/12/26 00:49:42;;;;;;;0.60;0.60;;;;;;;-4.80;64.42;101039.22;5046320;28;20322;-70
2021/12/26 00:52:08;;;;;;;0.60;0.60;;;;;;;-4.84;63.94;101035.47;5045937;28;20025;-71
2021/12/26 00:54:34;;;;;;;0.60;0.60;;;;;;;-4.86;63.80;101031.00;5044379;28;20098;-71
2021/12/26 00:57:00;;;;;;;0.60;0.60;;;;;;;-4.85;63.95;101030.25;5044565;28;20036;-70
2021/12/26 00:59:26;;;;;;;0.63;0.63;;;;;;;-4.85;63.79;101030.25;5049318;28;20279;-69
2021/12/26 01:01:53;;;;;;;0.60;0.60;;;;;;;-4.83;64.36;101024.53;5046574;28;20029;-70
2021/12/26 01:04:19;;;;;;;0.70;0.70;;;;;;;-4.83;63.50;101033.84;5045864;28;20264;-70
2021/12/26 01:06:44;;;;;;;0.60;0.60;;;;;;;-4.85;63.65;101022.56;5045448;28;21570;-70
2021/12/26 01:09:13;;;;;;;0.60;0.60;;;;;;;-4.87;63.74;101024.97;5045284;28;20009;-70
2021/12/26 01:11:42;;;;;;;0.73;0.73;;;;;;;-4.89;63.26;101023.03;5057314;28;20045;-70
2021/12/26 01:14:11;;;;;;;0.63;0.63;;;;;;;-4.90;64.44;101027.25;5059328;28;20341;-70
2021/12/26 01:16:38;;;;;;;0.67;0.67;;;;;;;-4.89;64.22;101030.69;5060571;28;20271;-69
2021/12/26 01:19:09;;;;;;;0.60;0.60;;;;;;;-4.91;63.86;101030.56;5060948;28;20634;-69
2021/12/26 01:21:35;;;;;;;0.70;0.70;;;;;;;-4.91;64.84;101032.22;5060748;28;20298;-69
2021/12/26 01:24:05;;;;;;;0.60;0.60;;;;;;;-4.92;64.77;101038.97;5060766;28;20653;-69
2021/12/26 01:26:30;;;;;;;0.60;0.60;;;;;;;-4.93;65.33;101033.75;5060467;28;20036;-69
2021/12/26 01:28:56;;;;;;;0.57;0.57;;;;;;;-4.95;64.57;101023.38;5040556;28;20300;-69
2021/12/26 01:31:23;;;;;;;0.70;0.70;;;;;;;-4.96;64.20;101027.56;5039841;28;20021;-69
2021/12/26 01:33:52;;;;;;;0.60;0.60;;;;;;;-4.96;64.12;101022.44;5040518;28;20052;-70
2021/12/26 01:36:18;;;;;;;0.60;0.60;;;;;;;-4.98;64.46;101012.88;5040810;28;20264;-70
2021/12/26 01:38:43;;;;;;;0.63;0.63;;;;;;;-5.00;64.05;101010.16;5040496;28;20598;-70
2021/12/26 01:41:10;;;;;;;0.70;0.70;;;;;;;-5.01;64.13;101018.59;5049217;28;20391;-69
2021/12/26 01:43:38;;;;;;;0.70;0.70;;;;;;;-5.01;65.30;101016.03;5060069;28;20032;-69
2021/12/26 01:46:04;;;;;;;0.80;0.80;;;;;;;-4.99;64.78;101017.06;5049760;28;20610;-70
2021/12/26 01:48:30;;;;;;;0.70;0.70;;;;;;;-4.97;65.43;101022.31;5040119;28;20272;-70
2021/12/26 01:50:55;;;;;;;0.60;0.60;;;;;;;-4.99;64.30;101014.50;5040478;28;20363;-69
2021/12/26 01:53:23;;;;;;;0.70;0.70;;;;;;;-4.99;64.50;101005.94;5040378;28;20064;-70
2021/12/26 01:55:49;;;;;;;0.70;0.70;;;;;;;-5.01;64.40;101010.91;5039806;28;20029;-70
2021/12/26 01:58:17;;;;;;;0.70;0.70;;;;;;;-5.02;64.30;101011.69;5041517;28;20292;-70
2021/12/26 02:00:46;;;;;;;0.60;0.60;;;;;;;-5.00;64.46;101006.69;5039549;28;20286;-69
2021/12/26 02:03:11;;;;;;;0.60;0.60;;;;;;;-5.00;64.68;101004.13;5039866;28;20566;-70
2021/12/26 02:05:37;;;;;;;0.93;0.93;;;;;;;-5.02;64.01;101008.22;5039669;28;20276;-70
2021/12/26 02:08:03;;;;;;;0.50;0.50;;;;;;;-5.02;63.29;100998.91;5051775;28;20040;-69
2021/12/26 02:10:29;;;;;;;0.60;0.60;;;;;;;-5.03;64.05;100998.75;5059357;28;20020;-70
2021/12/26 02:12:54;;;;;;;0.50;0.50;;;;;;;-5.01;63.25;101000.72;5055275;28;20523;-69
2021/12/26 02:15:19;;;;;;;0.77;0.77;;;;;;;-5.03;64.30;101001.31;5039471;28;20022;-71
2021/12/26 02:17:45;;;;;;;0.60;0.60;;;;;;;-5.06;63.75;100999.38;5040065;28;20025;-69
2021/12/26 02:20:17;;;;;;;0.43;0.43;;;;;;;-5.06;63.53;100995.94;5039129;28;20033;-70
2021/12/26 02:22:47;;;;;;;0.70;0.70;;;;;;;-5.07;65.04;100997.56;5039632;28;20112;-70
2021/12/26 02:25:28;;;;;;;0.63;0.63;;;;;;;-5.06;64.29;100999.38;5039537;28;20557;-70
2021/12/26 02:27:54;;;;;;;0.60;0.60;;;;;;;-5.08;63.93;100993.22;5039948;28;20268;-70
2021/12/26 02:30:20;;;;;;;0.57;0.57;;;;;;;-5.08;64.75;100997.41;5053167;28;20660;-70
2021/12/26 02:32:47;;;;;;;0.70;0.70;;;;;;;-5.10;64.36;100992.19;5059562;28;20021;-70
2021/12/26 02:35:13;;;;;;;0.67;0.67;;;;;;;-5.11;65.04;100986.16;5059636;28;20021;-70
2021/12/26 02:37:39;;;;;;;0.60;0.60;;;;;;;-5.11;64.88;100982.72;5059090;28;20334;-70
2021/12/26 02:40:05;;;;;;;0.70;0.70;;;;;;;-5.13;64.96;100982.56;5059178;28;20677;-69
2021/12/26 02:42:31;;;;;;;0.70;0.70;;;;;;;-5.14;64.27;100982.44;5059276;28;20291;-72
2021/12/26 02:44:56;;;;;;;0.67;0.67;;;;;;;-5.15;63.91;100985.75;5056118;28;20276;-70
2021/12/26 02:47:44;;;;;;;0.63;0.63;;;;;;;-5.18;63.94;100983.78;5039713;28;20025;-70
2021/12/26 02:50:16;;;;;;;0.70;0.70;;;;;;;-5.21;64.56;100986.06;5039331;28;20025;-69
2021/12/26 02:52:42;;;;;;;0.70;0.70;;;;;;;-5.24;64.13;100979.00;5038385;28;20288;-71
2021/12/26 02:55:09;;;;;;;0.60;0.60;;;;;;;-5.22;64.52;100975.69;5039321;28;20330;-70
2021/12/26 02:57:35;;;;;;;0.70;0.70;;;;;;;-5.22;64.49;100970.59;5038926;28;20257;-70
2021/12/26 03:00:06;;;;;;;0.70;0.70;;;;;;;-5.22;64.71;100957.81;5038762;28;20280;-69
2021/12/26 03:02:32;;;;;;;0.60;0.60;;;;;;;-5.22;65.96;100961.28;5039687;28;20033;-70
2021/12/26 03:04:57;;;;;;;0.70;0.70;;;;;;;-5.22;64.33;100952.72;5039061;28;20705;-69
2021/12/26 03:07:23;;;;;;;0.60;0.60;;;;;;;-5.24;65.06;100956.03;5044124;28;20055;-69
2021/12/26 03:09:50;;;;;;;0.77;0.77;;;;;;;-5.26;65.97;100947.34;5058498;28;20075;-69
2021/12/26 03:12:15;;;;;;;0.60;0.60;;;;;;;-5.28;64.49;100943.72;5057297;28;20055;-71
2021/12/26 03:14:41;;;;;;;0.70;0.70;;;;;;;-5.28;64.62;100938.63;5058226;28;20702;-70
2021/12/26 03:17:06;;;;;;;0.60;0.60;;;;;;;-5.27;64.86;100934.41;5057800;28;20035;-71
2021/12/26 03:19:33;;;;;;;0.60;0.60;;;;;;;-5.28;65.03;100932.63;5058510;28;20060;-70
2021/12/26 03:21:59;;;;;;;0.50;0.50;;;;;;;-5.29;64.97;100926.59;5057839;28;20039;-70
2021/12/26 03:24:24;;;;;;;0.70;0.70;;;;;;;-5.28;65.02;100932.63;5057699;28;20370;-70
2021/12/26 03:26:49;;;;;;;0.60;0.60;;;;;;;-5.27;65.11;100929.31;5058337;28;20032;-71
2021/12/26 03:29:15;;;;;;;0.60;0.60;;;;;;;-5.29;65.29;100935.94;5058296;28;20123;-70
2021/12/26 03:31:41;;;;;;;0.63;0.63;;;;;;;-5.30;65.73;100942.69;5057408;28;20099;-69
2021/12/26 03:34:08;;;;;;;0.60;0.60;;;;;;;-5.25;65.88;100938.91;5043567;28;20040;-70
2021/12/26 03:36:33;;;;;;;0.70;0.70;;;;;;;-5.26;66.00;100949.91;5038256;28;20280;-70
2021/12/26 03:38:58;;;;;;;0.60;0.60;;;;;;;-5.27;66.28;100953.22;5038601;28;20333;-70
2021/12/26 03:41:24;;;;;;;0.60;0.60;;;;;;;-5.27;66.68;100947.19;5038560;28;20044;-69
2021/12/26 03:43:49;;;;;;;0.70;0.70;;;;;;;-5.23;66.42;100941.63;5037893;28;20369;-70
2021/12/26 03:46:15;;;;;;;0.60;0.60;;;;;;;-5.21;66.41;100949.41;5037371;28;20037;-70
2021/12/26 03:48:40;;;;;;;0.70;0.70;;;;;;;-5.21;67.03;100941.75;5039039;28;20017;-70
2021/12/26 03:51:06;;;;;;;0.60;0.60;;;;;;;-5.22;66.61;100948.53;5038264;28;20334;-69
2021/12/26 03:53:31;;;;;;;0.70;0.70;;;;;;;-5.24;67.26;100938.16;5036884;28;20029;-70
2021/12/26 03:55:58;;;;;;;0.70;0.70;;;;;;;-5.21;67.45;100934.09;5038342;28;20100;-70
2021/12/26 03:58:23;;;;;;;0.60;0.60;;;;;;;-5.19;67.01;100932.56;5037860;28;20049;-70
2021/12/26 04:00:49;;;;;;;0.60;0.60;;;;;;;-5.18;66.22;100935.28;5037281;28;20330;-70
2021/12/26 04:03:15;;;;;;;0.60;0.60;;;;;;;-5.18;67.24;100930.16;5037667;28;20060;-70
2021/12/26 04:05:40;;;;;;;0.60;0.60;;;;;;;-5.16;65.89;100925.22;5047924;28;20678;-70
2021/12/26 04:08:06;;;;;;;0.70;0.70;;;;;;;-5.13;66.10;100918.72;5057798;28;20040;-69
2021/12/26 04:10:31;;;;;;;0.60;0.60;;;;;;;-5.10;65.48;100930.88;5057193;28;20028;-70
2021/12/26 04:12:58;;;;;;;0.60;0.60;;;;;;;-5.13;65.15;100928.94;5057624;28;20346;-69
2021/12/26 04:15:24;;;;;;;0.60;0.60;;;;;;;-5.13;65.85;100928.94;5056954;28;20044;-70
2021/12/26 04:17:52;;;;;;;0.77;0.77;;;;;;;-5.12;65.25;100924.72;5057501;28;20295;-70
2021/12/26 04:20:18;;;;;;;0.70;0.70;;;;;;;-5.14;65.17;100929.72;5055605;28;20287;-70
2021/12/26 04:22:43;;;;;;;0.70;0.70;;;;;;;-5.15;66.08;100924.44;5057228;28;20362;-70
2021/12/26 04:25:09;;;;;;;0.70;0.70;;;;;;;-5.17;65.25;100923.41;5057552;28;20584;-71
2021/12/26 04:27:35;;;;;;;0.60;0.60;;;;;;;-5.16;65.34;100920.97;5057473;28;20029;-69
2021/12/26 04:30:00;;;;;;;0.70;0.70;;;;;;;-5.17;65.66;100911.53;5056981;28;20601;-70
2021/12/26 04:32:26;;;;;;;1.20;1.20;;;;;;;-5.18;66.24;100909.72;5057584;28;20028;-69
2021/12/26 04:34:51;;;;;;;0.60;0.60;;;;;;;-5.14;66.24;100908.38;5056915;28;20040;-69
2021/12/26 04:37:16;;;;;;;0.60;0.60;;;;;;;-5.16;65.88;100907.34;5054886;28;20071;-70
2021/12/26 04:39:42;;;;;;;0.60;0.60;;;;;;;-5.15;66.07;100917.69;5057220;28;20029;-70
2021/12/26 04:42:08;;;;;;;0.60;0.60;;;;;;;-5.17;66.41;100905.53;5057652;28;20094;-70
2021/12/26 04:44:33;;;;;;;0.60;0.60;;;;;;;-5.17;66.45;100908.09;5054553;28;20051;-69
2021/12/26 04:46:59;;;;;;;0.60;0.60;;;;;;;-5.16;65.95;100905.66;5057460;28;20669;-69
2021/12/26 04:49:24;;;;;;;0.70;0.70;;;;;;;-5.20;66.41;100906.16;5057822;28;20332;-69
2021/12/26 04:51:50;;;;;;;0.60;0.60;;;;;;;-5.20;66.26;100905.22;5056226;28;20407;-70
2021/12/26 04:54:15;;;;;;;0.70;0.70;;;;;;;-5.21;67.26;100911.09;5040202;28;20046;-70
2021/12/26 04:56:40;;;;;;;0.70;0.70;;;;;;;-5.22;66.61;100909.31;5036855;28;20152;-70
2021/12/26 04:59:06;;;;;;;0.60;0.60;;;;;;;-5.27;66.63;100902.13;5036583;28;20039;-70
2021/12/26 05:01:31;;;;;;;0.70;0.70;;;;;;;-5.26;66.82;100901.38;5019520;28;20029;-70
2021/12/26 05:03:57;;;;;;;0.70;0.70;;;;;;;-5.27;66.40;100899.59;5037331;28;20022;-70
2021/12/26 05:06:23;;;;;;;0.70;0.70;;;;;;;-5.22;66.15;100900.00;5037104;28;20075;-70
2021/12/26 05:08:48;;;;;;;0.60;0.60;;;;;;;-5.25;66.87;100895.50;5048837;28;20094;-69
2021/12/26 05:11:14;;;;;;;0.57;0.57;;;;;;;-5.25;66.90;100898.06;5035640;28;20563;-70
2021/12/26 05:13:39;;;;;;;0.70;0.70;;;;;;;-5.28;66.89;100895.22;5019645;28;20021;-71
2021/12/26 05:16:04;;;;;;;0.70;0.70;;;;;;;-5.28;66.29;100904.53;5036496;28;20391;-70
2021/12/26 05:18:30;;;;;;;0.70;0.70;;;;;;;-5.30;66.55;100906.06;5037030;28;20348;-70
2021/12/26 05:20:56;;;;;;;0.80;0.80;;;;;;;-5.31;67.03;100906.81;5036057;28;20349;-69
2021/12/26 05:23:22;;;;;;;0.60;0.60;;;;;;;-5.30;67.73;100906.94;5037133;28;20029;-70
2021/12/26 05:25:48;;;;;;;0.67;0.67;;;;;;;-5.31;67.47;100900.03;5037747;28;20380;-70
2021/12/26 05:28:13;;;;;;;0.70;0.70;;;;;;;-5.33;67.54;100893.00;5037055;28;20080;-70
2021/12/26 05:30:39;;;;;;;0.80;0.80;;;;;;;-5.34;67.23;100889.56;5036180;28;20038;-70
2021/12/26 05:33:05;;;;;;;0.70;0.70;;;;;;;-5.35;66.75;100886.84;5036842;28;20025;-70
2021/12/26 05:35:31;;;;;;;0.60;0.60;;;;;;;-5.37;67.56;100886.69;5036041;28;20034;-70
2021/12/26 05:37:57;;;;;;;0.63;0.63;;;;;;;-5.39;67.98;100881.47;5036937;28;20059;-72
2021/12/26 05:40:23;;;;;;;0.70;0.70;;;;;;;-5.37;67.67;100889.25;5037984;28;20438;-69
2021/12/26 05:42:48;;;;;;;0.63;0.63;;;;;;;-5.40;67.67;100883.88;5036526;28;20303;-70
2021/12/26 05:45:14;;;;;;;0.60;0.60;;;;;;;-5.43;67.60;100878.50;5036075;28;20068;-70
2021/12/26 05:47:39;;;;;;;0.60;0.60;;;;;;;-5.45;67.41;100867.22;5036068;28;20045;-69
2021/12/26 05:50:07;;;;;;;2.80;2.60;;;;;;;-5.48;66.99;100867.81;5019446;28;20407;-69
2021/12/26 05:52:32;;;;;;;0.70;0.70;;;;;;;-5.48;67.53;100870.38;5036034;28;20088;-69
2021/12/26 05:54:58;;;;;;;1.33;1.33;;;;;;;-5.48;67.81;100875.47;5035799;28;20296;-69
2021/12/26 05:57:24;;;;;;;0.50;0.50;;;;;;;-5.49;68.49;100870.25;5028586;28;20269;-70
2021/12/26 05:59:49;;;;;;;0.80;0.80;;;;;;;-5.51;68.84;100870.09;5039410;28;20030;-69
2021/12/26 06:02:15;;;;;;;0.70;0.70;;;;;;;-5.52;68.66;100870.88;5039886;28;20029;-69
2021/12/26 06:04:40;;;;;;;0.70;0.70;;;;;;;-5.55;68.17;100856.16;5039798;28;20124;-69
2021/12/26 06:07:06;;;;;;;0.70;0.70;;;;;;;-5.56;67.71;100864.56;5043468;28;20021;-69
2021/12/26 06:09:32;;;;;;;0.70;0.70;;;;;;;-5.58;67.93;100866.09;5059697;28;20025;-70
2021/12/26 06:11:57;;;;;;;0.73;0.73;;;;;;;-5.57;68.51;100867.88;5059960;28;20032;-68
2021/12/26 06:14:23;;;;;;;0.77;0.77;;;;;;;-5.57;67.74;100872.09;5042601;28;20546;-70
2021/12/26 06:16:48;;;;;;;0.67;0.67;;;;;;;-5.57;68.38;100874.63;5038796;28;20135;-69
2021/12/26 06:19:14;;;;;;;0.70;0.70;;;;;;;-5.58;68.34;100875.38;5039645;28;20033;-69
2021/12/26 06:21:39;;;;;;;0.80;0.80;;;;;;;-5.59;67.92;100871.03;5039308;28;20052;-69
2021/12/26 06:24:05;;;;;;;0.60;0.60;;;;;;;-5.59;68.50;100871.97;5039550;28;20025;-69
2021/12/26 06:26:32;;;;;;;0.50;0.50;;;;;;;-5.57;67.49;100874.63;5039309;28;20033;-69
2021/12/26 06:28:57;;;;;;;0.65;0.65;;;;;;;-5.60;67.46;100874.34;5039905;28;20029;-70
2021/12/26 06:31:23;;;;;;;0.67;0.67;;;;;;;-5.61;67.75;100872.56;5021858;28;20044;-70
2021/12/26 06:33:49;;;;;;;0.63;0.63;;;;;;;-5.62;67.83;100871.66;5039147;28;20134;-69
2021/12/26 06:36:15;;;;;;;0.70;0.70;;;;;;;-5.61;67.32;100873.44;5038353;28;20119;-70
2021/12/26 06:38:42;;;;;;;0.60;0.60;;;;;;;-5.62;67.63;100868.22;5039107;28;20029;-69
2021/12/26 06:41:07;;;;;;;0.70;0.70;;;;;;;-5.64;67.52;100865.50;5038406;28;20708;-70
2021/12/26 06:43:34;;;;;;;0.70;0.70;;;;;;;-5.65;67.16;100868.81;5058694;28;20279;-69
2021/12/26 06:45:59;;;;;;;0.70;0.70;;;;;;;-5.65;68.33;100864.59;5058909;28;20020;-69
2021/12/26 06:48:25;;;;;;;0.70;0.70;;;;;;;-5.67;67.26;100870.34;5058356;28;20276;-68
2021/12/26 06:50:51;;;;;;;0.70;0.70;;;;;;;-5.66;67.72;100867.03;5058876;28;20079;-69
2021/12/26 06:53:18;;;;;;;0.70;0.70;;;;;;;-5.66;67.23;100867.91;5053565;28;20370;-70
2021/12/26 06:55:44;;;;;;;0.80;0.80;;;;;;;-5.65;67.56;100854.41;5038477;28;20036;-68
2021/12/26 06:58:10;;;;;;;0.60;0.60;;;;;;;-5.65;67.41;100853.50;5039053;28;20057;-69
2021/12/26 07:00:35;;;;;;;0.60;0.60;;;;;;;-5.64;68.01;100865.50;5038189;28;20053;-69
2021/12/26 07:03:01;;;;;;;0.60;0.60;;;;;;;-5.63;68.23;100854.53;5038155;28;20339;-68
2021/12/26 07:05:27;;;;;;;0.73;0.73;;;;;;;-5.65;67.38;100859.50;5038394;28;20025;-69
2021/12/26 07:07:52;;;;;;;0.70;0.70;;;;;;;-5.66;67.85;100851.72;5047909;28;20017;-69
2021/12/26 07:10:17;;;;;;;0.60;0.60;;;;;;;-5.66;68.06;100857.72;5057768;28;20044;-69
2021/12/26 07:12:44;;;;;;;0.70;0.70;;;;;;;-5.65;67.71;100854.41;5057937;28;20052;-69
2021/12/26 07:15:10;;;;;;;0.80;0.80;;;;;;;-5.65;67.74;100851.84;5058140;28;20025;-69
2021/12/26 07:17:35;;;;;;;0.70;0.70;;;;;;;-5.65;67.96;100850.97;5058287;28;20021;-69
2021/12/26 07:20:01;;;;;;;0.60;0.60;;;;;;;-5.67;67.18;100850.81;5058422;28;20159;-69
2021/12/26 07:22:26;;;;;;;0.70;0.70;;;;;;;-5.69;68.08;100843.75;5057350;28;20036;-70
2021/12/26 07:24:52;;;;;;;0.70;0.70;;;;;;;-5.70;67.84;100853.09;5037300;28;20052;-69
2021/12/26 07:27:17;;;;;;;0.60;0.60;;;;;;;-5.70;67.87;100850.53;5037825;28;20201;-69
2021/12/26 07:29:43;;;;;;;0.63;0.63;;;;;;;-5.71;67.31;100853.84;5037276;28;20037;-69
2021/12/26 07:32:10;;;;;;;0.70;0.70;;;;;;;-5.70;67.85;100852.19;5038398;28;20108;-70
2021/12/26 07:34:35;;;;;;;0.70;0.70;;;;;;;-5.72;68.37;100857.13;5037036;28;20295;-69
2021/12/26 07:37:02;;;;;;;0.77;0.77;;;;;;;-5.67;68.71;100866.13;5037425;28;20284;-69
2021/12/26 07:39:28;;;;;;;0.70;0.70;;;;;;;-5.67;68.82;100863.56;5048666;28;20445;-68
2021/12/26 07:41:53;;;;;;;0.60;0.60;;;;;;;-5.68;68.87;100863.41;5051051;28;20049;-69
2021/12/26 07:44:19;;;;;;;0.60;0.60;;;;;;;-5.69;68.32;100865.09;5047354;28;20097;-68
2021/12/26 07:46:47;;;;;;;0.70;0.70;;;;;;;-5.65;68.40;100863.72;5046122;28;20056;-70
2021/12/26 07:49:12;;;;;;;0.65;0.65;;;;;;;-5.68;68.17;100865.97;5048098;28;20057;-69
2021/12/26 07:51:38;;;;;;;0.70;0.70;;;;;;;-5.68;68.92;100864.31;5046649;28;20104;-69
2021/12/26 07:54:03;;;;;;;0.60;0.60;;;;;;;-5.68;68.40;100861.78;5046943;28;20047;-69
2021/12/26 07:56:30;;;;;;;0.70;0.70;;;;;;;-5.68;68.69;100863.41;5043943;28;20292;-69
2021/12/26 07:58:55;;;;;;;0.70;0.70;;;;;;;-5.67;68.01;100862.69;5045138;28;20484;-70
2021/12/26 08:01:21;;;;;;;0.70;0.70;;;;;;;-5.67;67.87;100861.03;5042879;28;20348;-70
2021/12/26 08:03:47;;;;;;;0.80;0.80;;;;;;;-5.67;68.42;100863.56;5042143;28;20068;-69
2021/12/26 08:06:18;;;;;;;0.63;0.63;;;;;;;-5.67;68.25;100858.47;5050324;28;20033;-68
2021/12/26 08:08:44;;;;;;;0.70;0.70;;;;;;;-5.63;68.83;100856.22;5042635;28;20093;-69
2021/12/26 08:11:09;;;;;;;0.70;0.70;;;;;;;-5.61;68.32;100854.69;5047379;28;20040;-69
2021/12/26 08:13:35;;;;;;;0.50;0.50;;;;;;;-5.60;68.74;100862.47;5043293;28;20021;-69
2021/12/26 08:16:01;;;;;;;0.70;0.70;;;;;;;-5.57;69.83;100866.97;5042821;28;20105;-70
2021/12/26 08:18:26;;;;;;;0.73;0.73;;;;;;;-5.53;68.98;100861.41;5037911;28;20441;-69
2021/12/26 08:20:52;;;;;;;0.70;0.70;;;;;;;-5.50;69.00;100865.91;5036392;28;20084;-69
2021/12/26 08:23:17;;;;;;;0.63;0.63;;;;;;;-5.46;69.28;100857.78;5041205;28;20032;-70
2021/12/26 08:25:43;;;;;;;0.60;0.60;;;;;;;-5.43;68.09;100868.28;5035370;28;20374;-68
2021/12/26 08:28:08;;;;;;;0.70;0.70;;;;;;;-5.39;68.61;100861.06;5036155;28;20111;-69
2021/12/26 08:30:34;;;;;;;0.70;0.70;;;;;;;-5.34;68.73;100858.00;5051710;28;20048;-70
2021/12/26 08:33:05;;;;;;;0.75;0.75;;;;;;;-5.30;68.44;100857.56;5060051;28;20120;-69
2021/12/26 08:35:31;;;;;;;0.70;0.70;;;;;;;-5.24;68.80;100860.63;5058011;28;20021;-69
2021/12/26 08:37:56;;;;;;;0.70;0.70;;;;;;;-5.19;68.83;100861.97;5036967;28;20155;-69
2021/12/26 08:40:22;;;;;;;0.70;0.70;;;;;;;-5.19;69.14;100864.53;5048764;28;20284;-70
2021/12/26 08:42:48;;;;;;;0.70;0.70;;;;;;;-5.15;68.20;100868.25;5074971;28;20114;-70
2021/12/26 08:45:13;;;;;;;0.63;0.63;;;;;;;-5.11;69.31;100860.13;5074003;28;20052;-70
2021/12/26 08:47:39;;;;;;;0.70;0.70;;;;;;;-5.07;68.76;100853.63;5037485;28;20069;-70
2021/12/26 08:50:05;;;;;;;0.60;0.60;;;;;;;-5.04;68.68;100859.91;5035563;28;20029;-70
2021/12/26 08:52:31;;;;;;;0.60;0.60;;;;;;;-4.96;68.96;100863.19;5046899;28;20043;-70
2021/12/26 08:54:56;;;;;;;0.70;0.70;;;;;;;-4.90;69.41;100860.28;5056353;28;20378;-71
2021/12/26 08:57:21;;;;;;;1.10;1.10;;;;;;;-4.83;68.81;100872.84;5056299;28;20025;-70
2021/12/26 08:59:47;;;;;;;0.60;0.60;;;;;;;-4.76;68.50;100870.09;5038134;28;20112;-71
2021/12/26 09:02:13;;;;;;;0.70;0.70;;;;;;;-4.69;68.67;100867.34;5037019;28;20021;-70
2021/12/26 09:04:39;;;;;;;0.70;0.70;;;;;;;-4.62;68.66;100873.88;5036447;28;20021;-71
2021/12/26 09:07:07;;;;;;;0.60;0.60;;;;;;;-4.53;68.18;100868.72;5039230;28;20279;-70
2021/12/26 09:09:32;;;;;;;0.63;0.63;;;;;;;-4.47;67.99;100865.81;5053705;28;20573;-70
2021/12/26 09:11:58;;;;;;;0.70;0.70;;;;;;;-4.42;67.63;100856.88;5050671;28;20367;-69
2021/12/26 09:14:29;;;;;;;0.70;0.70;;;;;;;-4.39;67.46;100869.94;5036015;28;20426;-70
2021/12/26 09:16:56;;;;;;;0.50;0.50;;;;;;;-4.43;67.87;100863.66;5045691;28;20350;-70
2021/12/26 09:19:22;;;;;;;0.50;0.50;;;;;;;-4.46;67.44;100855.72;5056644;28;20329;-69
2021/12/26 09:21:47;;;;;;;0.50;0.50;;;;;;;-4.46;67.72;100857.38;5045827;28;20276;-68
2021/12/26 09:24:12;;;;;;;0.67;0.67;;;;;;;-4.48;67.86;100859.78;5047318;28;20211;-69
2021/12/26 09:26:38;;;;;;;0.80;0.80;;;;;;;-4.47;67.96;100858.13;5039053;28;20437;-69
2021/12/26 09:29:03;;;;;;;0.50;0.50;;;;;;;-4.49;68.14;100855.44;5047099;28;20033;-70
2021/12/26 09:31:29;;;;;;;0.60;0.60;;;;;;;-4.47;68.70;100853.94;5055728;28;20025;-69
2021/12/26 09:33:54;;;;;;;0.50;0.50;;;;;;;-4.45;68.22;100854.03;5060470;28;20426;-68
2021/12/26 09:36:20;;;;;;;0.60;0.60;;;;;;;-4.44;68.20;100858.38;5059152;28;20037;-68
2021/12/26 09:38:46;;;;;;;0.70;0.70;;;;;;;-4.42;68.85;100855.22;5053722;28;20020;-68
2021/12/26 09:41:12;;;;;;;0.60;0.60;;;;;;;-4.37;68.13;100855.63;5048998;28;20082;-68
2021/12/26 09:43:38;;;;;;;0.70;0.70;;;;;;;-4.33;68.66;100857.69;5049013;28;20025;-68
2021/12/26 09:46:04;;;;;;;0.47;0.47;;;;;;;-4.29;68.83;100851.19;5045188;28;20017;-68
2021/12/26 09:48:29;;;;;;;0.60;0.60;;;;;;;-4.24;68.10;100849.91;5049015;28;20547;-69
2021/12/26 09:50:54;;;;;;;0.60;0.60;;;;;;;-4.20;68.19;100844.31;5052795;28;20299;-68
2021/12/26 09:53:20;;;;;;;0.50;0.50;;;;;;;-4.14;67.88;100843.97;5048304;28;20064;-69
2021/12/26 09:55:46;;;;;;;0.57;0.57;;;;;;;-4.06;68.27;100844.66;5049728;28;20025;-69
2021/12/26 09:58:11;;;;;;;0.70;0.70;;;;;;;-4.01;67.57;100836.59;5045712;28;20116;-69
2021/12/26 10:00:38;;;;;;;0.63;0.63;;;;;;;-3.91;68.03;100832.28;5046625;28;20025;-69
2021/12/26 10:03:12;;;;;;;0.60;0.60;;;;;;;-3.82;68.24;100829.59;5057485;28;20032;-69
2021/12/26 10:06:14;;;;;;;0.60;0.60;;;;;;;-3.72;67.35;100830.50;5058749;28;20283;-69
2021/12/26 10:08:54;;;;;;;0.63;0.63;;;;;;;-3.65;67.77;100829.41;5037214;28;20284;-68
2021/12/26 10:11:23;;;;;;;0.70;0.70;;;;;;;-3.57;67.94;100821.47;5036981;28;20279;-70
2021/12/26 10:13:51;;;;;;;0.60;0.60;;;;;;;-3.50;67.62;100814.44;5039500;28;20402;-70
2021/12/26 10:16:19;;;;;;;0.70;0.70;;;;;;;-3.43;67.82;100820.06;5038828;28;20268;-70
2021/12/26 10:18:45;;;;;;;0.50;0.50;;;;;;;-3.41;66.87;100806.63;5039788;28;20292;-68
2021/12/26 10:21:37;;;;;;;0.50;0.50;;;;;;;-3.36;67.47;100802.78;5058997;28;20669;-69
2021/12/26 10:24:19;;;;;;;0.60;0.60;;;;;;;-3.31;67.26;100806.63;5059779;28;20267;-70
2021/12/26 10:26:52;;;;;;;0.50;0.50;;;;;;;-3.28;68.05;100803.44;5059370;28;20282;-69
2021/12/26 10:29:23;;;;;;;0.60;0.60;;;;;;;-3.17;67.69;100804.31;5053448;28;20287;-68
2021/12/26 10:31:50;;;;;;;0.60;0.60;;;;;;;-3.14;67.70;100790.84;5059315;28;20271;-70
2021/12/26 10:34:40;;;;;;;0.60;0.60;;;;;;;-3.13;67.60;100792.66;5042309;28;20299;-69
2021/12/26 10:37:24;;;;;;;0.70;0.70;;;;;;;-3.03;67.84;100784.97;5039686;28;20538;-70
2021/12/26 10:39:51;;;;;;;0.50;0.50;;;;;;;-2.97;67.69;100792.25;5044036;28;20342;-69
2021/12/26 10:42:23;;;;;;;0.67;0.67;;;;;;;-2.92;67.81;100779.03;5059359;28;20357;-69
2021/12/26 10:44:54;;;;;;;0.60;0.60;;;;;;;-2.85;67.75;100772.75;5058922;28;20650;-69
2021/12/26 10:47:22;;;;;;;0.70;0.70;;;;;;;-2.75;67.68;100774.38;5046753;28;20275;-70
2021/12/26 10:49:52;;;;;;;0.60;0.60;;;;;;;-2.64;67.88;100777.81;5039177;28;20276;-70
2021/12/26 10:52:21;;;;;;;0.60;0.60;;;;;;;-2.58;68.36;100780.88;5038497;28;20322;-70
2021/12/26 10:54:56;;;;;;;0.63;0.63;;;;;;;-2.53;68.59;100784.72;5038950;28;20322;-70
2021/12/26 10:57:26;;;;;;;0.50;0.50;;;;;;;-2.50;68.46;100774.69;5039286;28;20359;-70
2021/12/26 11:00:03;;;;;;;0.50;0.50;;;;;;;-2.45;68.40;100779.31;5042769;28;20410;-69
2021/12/26 11:02:30;;;;;;;0.60;0.60;;;;;;;-2.35;68.83;100776.69;5052463;28;20303;-70
2021/12/26 11:05:03;;;;;;;0.40;0.40;;;;;;;-2.26;68.47;100774.84;5038985;28;20563;-69
2021/12/26 11:07:30;;;;;;;0.50;0.50;;;;;;;-2.15;68.19;100769.66;5040800;28;20345;-69
2021/12/26 11:10:06;;;;;;;0.50;0.50;;;;;;;-2.14;68.54;100766.31;5040346;28;20283;-69
2021/12/26 11:12:37;;;;;;;0.52;0.52;;;;;;;-2.09;68.17;100757.31;5048623;28;20295;-69
2021/12/26 11:15:04;;;;;;;0.40;0.40;;;;;;;-2.03;67.88;100759.44;5057883;28;20095;-69
2021/12/26 11:17:31;;;;;;;0.60;0.60;;;;;;;-2.00;68.43;100758.03;5040980;28;20682;-68
2021/12/26 11:19:56;;;;;;;0.47;0.47;;;;;;;-1.96;67.95;100752.38;5047377;28;20294;-68
2021/12/26 11:22:24;;;;;;;0.70;0.70;;;;;;;-1.89;68.18;100755.38;5078585;28;20356;-69